sensor_id;sensor_type;location;lat;lon;timestamp;pressure;altitude;pressure_sealevel;temperature;humidity
19259;BME280;9763;48.780;9.212;2022-11-24T00:00:00;97679.31;;;9.51;84.06
19259;BME280;9763;48.780;9.212;2022-11-24T00:03:27;97675.34;;;9.46;83.22
19259;BME280;9763;48.780;9.212;2022-11-24T00:06:51;97675.88;;;9.51;82.70
19259;BME280;9763;48.780;9.212;2022-11-24T00:10:16;97685.81;;;9.57;83.53
19259;BME280;9763;48.780;9.212;2022-11-24T00:13:42;97676.47;;;9.54;83.64
19259;BME280;9763;48.780;9.212;2022-11-24T00:17:05;97688.72;;;9.65;84.28
19259;BME280;9763;48.780;9.212;2022-11-24T00:20:29;97685.66;;;9.71;84.66
19259;BME280;9763;48.780;9.212;2022-11-24T00:23:53;97684.63;;;9.73;85.24
19259;BME280;9763;48.780;9.212;2022-11-24T00:27:17;97699.97;;;9.89;84.91
19259;BME280;9763;48.780;9.212;2022-11-24T00:30:42;97701.06;;;9.98;85.30
19259;BME280;9763;48.780;9.212;2022-11-24T00:34:10;97698.81;;;10.04;84.59
19259;BME280;9763;48.780;9.212;2022-11-24T00:37:34;97706.66;;;10.16;84.70
19259;BME280;9763;48.780;9.212;2022-11-24T00:40:58;97710.53;;;10.23;85.10
19259;BME280;9763;48.780;9.212;2022-11-24T00:44:22;97721.19;;;10.31;84.56
19259;BME280;9763;48.780;9.212;2022-11-24T00:47:47;97715.53;;;10.37;85.09
19259;BME280;9763;48.780;9.212;2022-11-24T00:51:13;97711.00;;;10.39;84.62
19259;BME280;9763;48.780;9.212;2022-11-24T00:54:37;97726.22;;;10.45;84.30
19259;BME280;9763;48.780;9.212;2022-11-24T00:58:01;97730.00;;;10.41;83.84
19259;BME280;9763;48.780;9.212;2022-11-24T01:01:27;97725.81;;;10.27;83.17
19259;BME280;9763;48.780;9.212;2022-11-24T01:04:56;97735.41;;;10.27;82.45
19259;BME280;9763;48.780;9.212;2022-11-24T01:08:19;97740.25;;;10.20;82.15
19259;BME280;9763;48.780;9.212;2022-11-24T01:11:43;97748.63;;;10.13;82.31
19259;BME280;9763;48.780;9.212;2022-11-24T01:15:26;97754.63;;;10.02;81.95
19259;BME280;9763;48.780;9.212;2022-11-24T01:18:52;97758.50;;;9.96;82.23
19259;BME280;9763;48.780;9.212;2022-11-24T01:22:17;97764.88;;;9.92;81.98
19259;BME280;9763;48.780;9.212;2022-11-24T01:25:41;97762.50;;;9.89;83.15
19259;BME280;9763;48.780;9.212;2022-11-24T01:29:05;97766.28;;;9.85;83.29
19259;BME280;9763;48.780;9.212;2022-11-24T01:32:29;97772.53;;;9.83;83.39
19259;BME280;9763;48.780;9.212;2022-11-24T01:35:55;97771.09;;;9.79;83.61
19259;BME280;9763;48.780;9.212;2022-11-24T01:39:20;97765.88;;;9.79;84.06
19259;BME280;9763;48.780;9.212;2022-11-24T01:42:48;97770.66;;;9.85;84.98
19259;BME280;9763;48.780;9.212;2022-11-24T01:46:19;97776.03;;;9.94;85.21
19259;BME280;9763;48.780;9.212;2022-11-24T01:49:49;97770.97;;;10.04;85.14
19259;BME280;9763;48.780;9.212;2022-11-24T01:53:14;97778.16;;;10.13;85.84
19259;BME280;9763;48.780;9.212;2022-11-24T01:56:45;97780.94;;;10.23;85.15
19259;BME280;9763;48.780;9.212;2022-11-24T02:00:13;97775.00;;;10.21;85.14
19259;BME280;9763;48.780;9.212;2022-11-24T02:03:41;97784.31;;;10.36;85.17
19259;BME280;9763;48.780;9.212;2022-11-24T02:07:06;97786.44;;;10.42;85.83
19259;BME280;9763;48.780;9.212;2022-11-24T02:10:31;97782.66;;;10.46;85.63
19259;BME280;9763;48.780;9.212;2022-11-24T02:13:57;97785.88;;;10.50;86.04
19259;BME280;9763;48.780;9.212;2022-11-24T02:17:21;97788.34;;;10.51;86.35
19259;BME280;9763;48.780;9.212;2022-11-24T02:20:45;97789.06;;;10.53;85.76
19259;BME280;9763;48.780;9.212;2022-11-24T02:24:18;97792.28;;;10.57;86.15
19259;BME280;9763;48.780;9.212;2022-11-24T02:27:46;97790.53;;;10.57;85.31
19259;BME280;9763;48.780;9.212;2022-11-24T02:31:15;97795.97;;;10.54;85.11
19259;BME280;9763;48.780;9.212;2022-11-24T02:34:39;97791.78;;;10.52;85.03
19259;BME280;9763;48.780;9.212;2022-11-24T02:38:03;97799.75;;;10.50;84.73
19259;BME280;9763;48.780;9.212;2022-11-24T02:41:28;97784.06;;;10.39;85.23
19259;BME280;9763;48.780;9.212;2022-11-24T02:44:57;97795.09;;;10.42;85.07
19259;BME280;9763;48.780;9.212;2022-11-24T02:48:23;97776.69;;;10.33;85.04
19259;BME280;9763;48.780;9.212;2022-11-24T02:51:46;97797.69;;;10.42;84.11
19259;BME280;9763;48.780;9.212;2022-11-24T02:55:10;97801.16;;;10.43;84.06
19259;BME280;9763;48.780;9.212;2022-11-24T02:58:34;97802.19;;;10.40;83.63
19259;BME280;9763;48.780;9.212;2022-11-24T03:01:59;97804.13;;;10.38;84.03
19259;BME280;9763;48.780;9.212;2022-11-24T03:05:24;97804.44;;;10.34;83.40
19259;BME280;9763;48.780;9.212;2022-11-24T03:08:48;97808.09;;;10.31;83.28
19259;BME280;9763;48.780;9.212;2022-11-24T03:12:12;97823.03;;;10.29;83.13
19259;BME280;9763;48.780;9.212;2022-11-24T03:15:36;97813.16;;;10.22;83.41
19259;BME280;9763;48.780;9.212;2022-11-24T03:19:02;97820.16;;;10.21;82.70
19259;BME280;9763;48.780;9.212;2022-11-24T03:22:26;97827.25;;;10.19;82.72
19259;BME280;9763;48.780;9.212;2022-11-24T03:25:50;97820.44;;;10.17;83.17
19259;BME280;9763;48.780;9.212;2022-11-24T03:29:14;97812.97;;;10.12;83.66
19259;BME280;9763;48.780;9.212;2022-11-24T03:32:38;97831.34;;;10.10;83.97
19259;BME280;9763;48.780;9.212;2022-11-24T03:36:06;97824.06;;;10.03;83.86
19259;BME280;9763;48.780;9.212;2022-11-24T03:39:30;97840.53;;;10.03;84.04
19259;BME280;9763;48.780;9.212;2022-11-24T03:42:54;97832.84;;;10.02;83.89
19259;BME280;9763;48.780;9.212;2022-11-24T03:46:17;97838.06;;;10.02;83.39
19259;BME280;9763;48.780;9.212;2022-11-24T03:49:42;97845.75;;;10.03;83.98
19259;BME280;9763;48.780;9.212;2022-11-24T03:53:07;97851.09;;;10.02;84.08
19259;BME280;9763;48.780;9.212;2022-11-24T03:56:31;97851.91;;;10.02;83.67
19259;BME280;9763;48.780;9.212;2022-11-24T03:59:54;97848.25;;;10.05;83.96
19259;BME280;9763;48.780;9.212;2022-11-24T04:03:19;97856.56;;;10.10;84.31
19259;BME280;9763;48.780;9.212;2022-11-24T04:06:43;97856.69;;;10.08;84.00
19259;BME280;9763;48.780;9.212;2022-11-24T04:10:08;97861.28;;;10.05;83.85
19259;BME280;9763;48.780;9.212;2022-11-24T04:13:32;97863.88;;;10.05;83.67
19259;BME280;9763;48.780;9.212;2022-11-24T04:16:56;97863.28;;;10.01;83.17
19259;BME280;9763;48.780;9.212;2022-11-24T04:20:20;97866.84;;;10.00;83.26
19259;BME280;9763;48.780;9.212;2022-11-24T04:23:44;97863.72;;;9.95;83.45
19259;BME280;9763;48.780;9.212;2022-11-24T04:27:09;97867.25;;;9.94;83.74
19259;BME280;9763;48.780;9.212;2022-11-24T04:30:33;97874.34;;;9.92;83.31
19259;BME280;9763;48.780;9.212;2022-11-24T04:33:57;97890.00;;;9.92;83.23
19259;BME280;9763;48.780;9.212;2022-11-24T04:37:20;97888.94;;;9.95;83.32
19259;BME280;9763;48.780;9.212;2022-11-24T04:40:44;97884.47;;;9.97;84.01
19259;BME280;9763;48.780;9.212;2022-11-24T04:44:09;97883.31;;;10.01;83.95
19259;BME280;9763;48.780;9.212;2022-11-24T04:47:33;97888.06;;;10.07;84.05
19259;BME280;9763;48.780;9.212;2022-11-24T04:50:56;97884.09;;;10.14;84.39
19259;BME280;9763;48.780;9.212;2022-11-24T04:54:20;97889.06;;;10.17;84.54
19259;BME280;9763;48.780;9.212;2022-11-24T04:57:43;97880.66;;;10.14;84.30
19259;BME280;9763;48.780;9.212;2022-11-24T05:01:08;97880.97;;;10.22;84.21
19259;BME280;9763;48.780;9.212;2022-11-24T05:04:32;97885.25;;;10.23;84.46
19259;BME280;9763;48.780;9.212;2022-11-24T05:07:58;97882.63;;;10.23;84.04
19259;BME280;9763;48.780;9.212;2022-11-24T05:11:22;97884.41;;;10.22;83.89
19259;BME280;9763;48.780;9.212;2022-11-24T05:14:45;97895.06;;;10.19;83.48
19259;BME280;9763;48.780;9.212;2022-11-24T05:18:13;97886.09;;;10.10;83.99
19259;BME280;9763;48.780;9.212;2022-11-24T05:21:37;97871.13;;;10.01;83.50
19259;BME280;9763;48.780;9.212;2022-11-24T05:25:01;97896.16;;;10.15;83.65
19259;BME280;9763;48.780;9.212;2022-11-24T05:28:24;97915.50;;;10.13;82.61
19259;BME280;9763;48.780;9.212;2022-11-24T05:31:48;97911.44;;;10.08;82.99
19259;BME280;9763;48.780;9.212;2022-11-24T05:35:13;97920.31;;;10.06;82.09
19259;BME280;9763;48.780;9.212;2022-11-24T05:38:38;97920.66;;;10.01;82.05
19259;BME280;9763;48.780;9.212;2022-11-24T05:42:04;97919.19;;;9.97;82.17
19259;BME280;9763;48.780;9.212;2022-11-24T05:45:42;97927.09;;;9.96;82.45
19259;BME280;9763;48.780;9.212;2022-11-24T05:49:06;97918.47;;;9.95;82.10
19259;BME280;9763;48.780;9.212;2022-11-24T05:52:32;97918.47;;;9.95;82.27
19259;BME280;9763;48.780;9.212;2022-11-24T05:55:56;97912.41;;;9.95;83.01
19259;BME280;9763;48.780;9.212;2022-11-24T05:59:19;97914.91;;;9.96;82.67
19259;BME280;9763;48.780;9.212;2022-11-24T06:02:43;97913.03;;;9.98;82.77
19259;BME280;9763;48.780;9.212;2022-11-24T06:06:07;97918.97;;;10.00;83.58
19259;BME280;9763;48.780;9.212;2022-11-24T06:09:35;97916.25;;;10.02;83.15
19259;BME280;9763;48.780;9.212;2022-11-24T06:13:04;97910.91;;;10.03;83.58
19259;BME280;9763;48.780;9.212;2022-11-24T06:16:28;97915.91;;;10.06;83.27
19259;BME280;9763;48.780;9.212;2022-11-24T06:19:52;97920.94;;;10.09;83.58
19259;BME280;9763;48.780;9.212;2022-11-24T06:23:15;97923.91;;;10.16;84.13
19259;BME280;9763;48.780;9.212;2022-11-24T06:26:41;97927.06;;;10.21;84.12
19259;BME280;9763;48.780;9.212;2022-11-24T06:30:06;97931.97;;;10.26;84.38
19259;BME280;9763;48.780;9.212;2022-11-24T06:33:31;97936.00;;;10.30;84.36
19259;BME280;9763;48.780;9.212;2022-11-24T06:36:55;97935.69;;;10.34;84.07
19259;BME280;9763;48.780;9.212;2022-11-24T06:40:18;97941.53;;;10.38;84.32
19259;BME280;9763;48.780;9.212;2022-11-24T06:43:44;97946.41;;;10.42;83.70
19259;BME280;9763;48.780;9.212;2022-11-24T06:47:08;97943.47;;;10.47;84.34
19259;BME280;9763;48.780;9.212;2022-11-24T06:50:32;97953.44;;;10.53;83.58
19259;BME280;9763;48.780;9.212;2022-11-24T06:53:56;97953.25;;;10.56;83.53
19259;BME280;9763;48.780;9.212;2022-11-24T06:57:20;97966.97;;;10.71;83.49
19259;BME280;9763;48.780;9.212;2022-11-24T07:00:52;97968.88;;;10.80;83.99
19259;BME280;9763;48.780;9.212;2022-11-24T07:04:15;97954.06;;;10.80;83.85
19259;BME280;9763;48.780;9.212;2022-11-24T07:07:39;97987.84;;;10.95;83.48
19259;BME280;9763;48.780;9.212;2022-11-24T07:11:04;97994.50;;;10.99;83.23
19259;BME280;9763;48.780;9.212;2022-11-24T07:14:29;98000.53;;;10.99;83.32
19259;BME280;9763;48.780;9.212;2022-11-24T07:17:54;98002.34;;;10.99;83.35
19259;BME280;9763;48.780;9.212;2022-11-24T07:21:20;98003.28;;;10.98;83.42
19259;BME280;9763;48.780;9.212;2022-11-24T07:24:44;98008.59;;;10.96;83.47
19259;BME280;9763;48.780;9.212;2022-11-24T07:28:08;98009.03;;;10.90;83.47
19259;BME280;9763;48.780;9.212;2022-11-24T07:31:32;98016.97;;;10.89;83.68
19259;BME280;9763;48.780;9.212;2022-11-24T07:34:57;98027.78;;;10.84;83.71
19259;BME280;9763;48.780;9.212;2022-11-24T07:38:20;98037.69;;;10.79;83.83
19259;BME280;9763;48.780;9.212;2022-11-24T07:41:44;98034.41;;;10.64;83.30
19259;BME280;9763;48.780;9.212;2022-11-24T07:45:09;98049.75;;;10.69;84.06
19259;BME280;9763;48.780;9.212;2022-11-24T07:48:32;98056.13;;;10.65;83.38
19259;BME280;9763;48.780;9.212;2022-11-24T07:51:57;98068.56;;;10.61;84.24
19259;BME280;9763;48.780;9.212;2022-11-24T07:55:22;98082.66;;;10.59;83.64
19259;BME280;9763;48.780;9.212;2022-11-24T07:58:45;98088.09;;;10.56;83.89
19259;BME280;9763;48.780;9.212;2022-11-24T08:02:14;98084.03;;;10.52;83.89
19259;BME280;9763;48.780;9.212;2022-11-24T08:05:38;98080.91;;;10.46;84.38
19259;BME280;9763;48.780;9.212;2022-11-24T08:09:23;98079.44;;;10.42;84.78
19259;BME280;9763;48.780;9.212;2022-11-24T08:12:47;98072.47;;;10.43;85.08
19259;BME280;9763;48.780;9.212;2022-11-24T08:16:12;98072.47;;;10.43;85.31
19259;BME280;9763;48.780;9.212;2022-11-24T08:19:36;98062.97;;;10.42;85.00
19259;BME280;9763;48.780;9.212;2022-11-24T08:23:00;98081.22;;;10.42;85.33
19259;BME280;9763;48.780;9.212;2022-11-24T08:26:26;98081.44;;;10.39;85.15
19259;BME280;9763;48.780;9.212;2022-11-24T08:29:49;98083.22;;;10.38;85.08
19259;BME280;9763;48.780;9.212;2022-11-24T08:33:13;98092.09;;;10.36;85.07
19259;BME280;9763;48.780;9.212;2022-11-24T08:36:37;98091.16;;;10.37;85.81
19259;BME280;9763;48.780;9.212;2022-11-24T08:40:01;98093.53;;;10.40;86.14
19259;BME280;9763;48.780;9.212;2022-11-24T08:43:26;98110.75;;;10.42;85.69
19259;BME280;9763;48.780;9.212;2022-11-24T08:46:52;98106.38;;;10.43;85.82
19259;BME280;9763;48.780;9.212;2022-11-24T08:50:16;98111.50;;;10.44;86.41
19259;BME280;9763;48.780;9.212;2022-11-24T08:53:40;98111.03;;;10.51;86.16
19259;BME280;9763;48.780;9.212;2022-11-24T08:57:04;98104.41;;;10.46;85.83
19259;BME280;9763;48.780;9.212;2022-11-24T09:00:29;98109.16;;;10.53;85.39
19259;BME280;9763;48.780;9.212;2022-11-24T09:03:53;98115.75;;;10.58;85.42
19259;BME280;9763;48.780;9.212;2022-11-24T09:07:16;98113.63;;;10.63;85.48
19259;BME280;9763;48.780;9.212;2022-11-24T09:10:40;98096.84;;;10.55;85.93
19259;BME280;9763;48.780;9.212;2022-11-24T09:14:04;98114.78;;;10.72;85.27
19259;BME280;9763;48.780;9.212;2022-11-24T09:17:29;98112.69;;;10.77;85.95
19259;BME280;9763;48.780;9.212;2022-11-24T09:20:52;98113.19;;;10.82;85.91
19259;BME280;9763;48.780;9.212;2022-11-24T09:24:19;98126.63;;;10.89;86.03
19259;BME280;9763;48.780;9.212;2022-11-24T09:27:43;98118.28;;;10.96;86.83
19259;BME280;9763;48.780;9.212;2022-11-24T09:31:08;98141.50;;;11.12;86.23
19259;BME280;9763;48.780;9.212;2022-11-24T09:34:34;98147.75;;;11.22;86.53
19259;BME280;9763;48.780;9.212;2022-11-24T09:37:57;98152.22;;;11.33;85.88
19259;BME280;9763;48.780;9.212;2022-11-24T09:41:48;98160.25;;;11.30;85.24
19259;BME280;9763;48.780;9.212;2022-11-24T09:45:33;98164.97;;;11.25;84.51
19259;BME280;9763;48.780;9.212;2022-11-24T09:49:31;98169.59;;;11.21;85.21
19259;BME280;9763;48.780;9.212;2022-11-24T09:53:07;98172.22;;;11.21;85.27
19259;BME280;9763;48.780;9.212;2022-11-24T09:56:35;98178.13;;;11.23;85.78
19259;BME280;9763;48.780;9.212;2022-11-24T10:00:11;98166.25;;;11.19;85.88
19259;BME280;9763;48.780;9.212;2022-11-24T10:03:39;98183.31;;;11.36;86.04
19259;BME280;9763;48.780;9.212;2022-11-24T10:07:19;98194.06;;;11.44;86.59
19259;BME280;9763;48.780;9.212;2022-11-24T10:10:55;98188.38;;;11.50;86.31
19259;BME280;9763;48.780;9.212;2022-11-24T10:14:49;98186.19;;;11.57;86.32
19259;BME280;9763;48.780;9.212;2022-11-24T10:18:41;98196.16;;;11.75;87.11
19259;BME280;9763;48.780;9.212;2022-11-24T10:22:26;98173.09;;;12.04;89.29
19259;BME280;9763;48.780;9.212;2022-11-24T10:25:57;98187.69;;;12.42;89.28
19259;BME280;9763;48.780;9.212;2022-11-24T10:29:27;98175.69;;;12.50;88.03
19259;BME280;9763;48.780;9.212;2022-11-24T10:32:57;98181.53;;;12.54;86.75
19259;BME280;9763;48.780;9.212;2022-11-24T10:36:36;98190.19;;;12.43;85.88
19259;BME280;9763;48.780;9.212;2022-11-24T10:40:13;98185.28;;;12.39;85.43
19259;BME280;9763;48.780;9.212;2022-11-24T10:44:01;98194.59;;;12.43;85.82
19259;BME280;9763;48.780;9.212;2022-11-24T10:47:25;98199.72;;;12.55;87.42
19259;BME280;9763;48.780;9.212;2022-11-24T10:50:52;98196.63;;;12.84;88.57
19259;BME280;9763;48.780;9.212;2022-11-24T10:54:18;98193.78;;;13.20;90.88
19259;BME280;9763;48.780;9.212;2022-11-24T10:57:42;98193.88;;;13.84;93.53
19259;BME280;9763;48.780;9.212;2022-11-24T11:01:28;98197.06;;;13.88;89.34
19259;BME280;9763;48.780;9.212;2022-11-24T11:04:54;98165.59;;;13.56;87.24
19259;BME280;9763;48.780;9.212;2022-11-24T11:08:22;98195.03;;;13.59;85.55
19259;BME280;9763;48.780;9.212;2022-11-24T11:11:47;98196.25;;;13.44;85.02
19259;BME280;9763;48.780;9.212;2022-11-24T11:15:23;98192.59;;;13.24;84.40
19259;BME280;9763;48.780;9.212;2022-11-24T11:18:49;98195.97;;;13.15;84.88
19259;BME280;9763;48.780;9.212;2022-11-24T11:22:16;98206.44;;;13.15;85.49
19259;BME280;9763;48.780;9.212;2022-11-24T11:25:42;98205.59;;;13.15;86.11
19259;BME280;9763;48.780;9.212;2022-11-24T11:29:16;98201.53;;;13.22;86.65
19259;BME280;9763;48.780;9.212;2022-11-24T11:33:01;98192.47;;;13.37;86.88
19259;BME280;9763;48.780;9.212;2022-11-24T11:36:48;98193.25;;;13.49;86.41
19259;BME280;9763;48.780;9.212;2022-11-24T11:40:15;98195.56;;;13.74;86.79
19259;BME280;9763;48.780;9.212;2022-11-24T11:43:40;98187.59;;;13.96;86.11
19259;BME280;9763;48.780;9.212;2022-11-24T11:47:25;98201.75;;;14.26;86.24
19259;BME280;9763;48.780;9.212;2022-11-24T11:50:56;98201.25;;;14.32;84.99
19259;BME280;9763;48.780;9.212;2022-11-24T11:59:24;98198.72;;;13.89;82.52
19259;BME280;9763;48.780;9.212;2022-11-24T12:03:18;98193.94;;;13.62;81.40
19259;BME280;9763;48.780;9.212;2022-11-24T12:07:08;98197.69;;;13.37;81.83
19259;BME280;9763;48.780;9.212;2022-11-24T12:10:44;98196.16;;;13.12;82.19
19259;BME280;9763;48.780;9.212;2022-11-24T12:14:20;98209.25;;;13.12;83.62
19259;BME280;9763;48.780;9.212;2022-11-24T12:17:51;98213.56;;;13.24;83.62
19259;BME280;9763;48.780;9.212;2022-11-24T12:21:22;98207.81;;;13.42;84.34
19259;BME280;9763;48.780;9.212;2022-11-24T12:24:56;98209.91;;;13.59;85.51
19259;BME280;9763;48.780;9.212;2022-11-24T12:28:38;98218.78;;;13.79;85.35
19259;BME280;9763;48.780;9.212;2022-11-24T12:32:22;98216.97;;;13.90;84.90
19259;BME280;9763;48.780;9.212;2022-11-24T12:35:57;98220.88;;;13.96;84.49
19259;BME280;9763;48.780;9.212;2022-11-24T12:39:33;98210.59;;;14.04;84.44
19259;BME280;9763;48.780;9.212;2022-11-24T12:43:10;98189.53;;;13.94;84.17
19259;BME280;9763;48.780;9.212;2022-11-24T12:46:47;98228.13;;;14.03;83.52
19259;BME280;9763;48.780;9.212;2022-11-24T12:50:18;98227.69;;;13.98;83.50
19259;BME280;9763;48.780;9.212;2022-11-24T12:53:44;98226.13;;;13.96;83.04
19259;BME280;9763;48.780;9.212;2022-11-24T12:57:17;98225.31;;;13.95;82.90
19259;BME280;9763;48.780;9.212;2022-11-24T13:01:01;98224.41;;;14.06;84.43
19259;BME280;9763;48.780;9.212;2022-11-24T13:04:49;98206.22;;;14.14;83.71
19259;BME280;9763;48.780;9.212;2022-11-24T13:08:16;98210.16;;;14.20;83.27
19259;BME280;9763;48.780;9.212;2022-11-24T13:11:43;98210.88;;;14.22;82.08
19259;BME280;9763;48.780;9.212;2022-11-24T13:15:14;98204.13;;;14.08;83.05
19259;BME280;9763;48.780;9.212;2022-11-24T13:18:59;98198.91;;;13.76;82.17
19259;BME280;9763;48.780;9.212;2022-11-24T13:22:27;98216.91;;;13.69;83.07
19259;BME280;9763;48.780;9.212;2022-11-24T13:26:13;98223.03;;;13.59;83.48
19259;BME280;9763;48.780;9.212;2022-11-24T13:29:39;98201.41;;;13.34;83.12
19259;BME280;9763;48.780;9.212;2022-11-24T13:33:33;98214.00;;;13.29;84.33
19259;BME280;9763;48.780;9.212;2022-11-24T13:36:57;98233.34;;;13.40;82.82
19259;BME280;9763;48.780;9.212;2022-11-24T13:40:42;98233.56;;;13.37;81.78
19259;BME280;9763;48.780;9.212;2022-11-24T13:44:26;98231.41;;;13.30;82.39
19259;BME280;9763;48.780;9.212;2022-11-24T13:47:50;98234.28;;;13.39;83.04
19259;BME280;9763;48.780;9.212;2022-11-24T13:51:21;98245.47;;;13.52;84.39
19259;BME280;9763;48.780;9.212;2022-11-24T13:54:46;98242.22;;;13.59;84.33
19259;BME280;9763;48.780;9.212;2022-11-24T13:58:30;98226.13;;;13.53;83.18
19259;BME280;9763;48.780;9.212;2022-11-24T14:01:57;98240.22;;;13.52;83.29
19259;BME280;9763;48.780;9.212;2022-11-24T14:05:28;98245.34;;;13.42;82.36
19259;BME280;9763;48.780;9.212;2022-11-24T14:08:55;98234.16;;;13.29;83.26
19259;BME280;9763;48.780;9.212;2022-11-24T14:12:22;98237.88;;;13.15;82.81
19259;BME280;9763;48.780;9.212;2022-11-24T14:15:59;98234.13;;;13.07;83.31
19259;BME280;9763;48.780;9.212;2022-11-24T14:19:25;98242.00;;;12.95;83.62
19259;BME280;9763;48.780;9.212;2022-11-24T14:22:53;98233.91;;;12.87;83.29
19259;BME280;9763;48.780;9.212;2022-11-24T14:26:19;98217.97;;;12.79;83.44
19259;BME280;9763;48.780;9.212;2022-11-24T14:29:54;98227.22;;;12.72;83.52
19259;BME280;9763;48.780;9.212;2022-11-24T14:33:20;98232.22;;;12.64;82.82
19259;BME280;9763;48.780;9.212;2022-11-24T14:36:44;98243.25;;;12.56;83.47
19259;BME280;9763;48.780;9.212;2022-11-24T14:40:39;98241.13;;;12.50;82.75
19259;BME280;9763;48.780;9.212;2022-11-24T14:44:06;98245.16;;;12.43;82.52
19259;BME280;9763;48.780;9.212;2022-11-24T14:47:39;98242.03;;;12.38;83.19
19259;BME280;9763;48.780;9.212;2022-11-24T14:51:17;98255.47;;;12.34;82.76
19259;BME280;9763;48.780;9.212;2022-11-24T14:54:46;98258.19;;;12.32;83.30
19259;BME280;9763;48.780;9.212;2022-11-24T14:58:27;98259.41;;;12.39;83.89
19259;BME280;9763;48.780;9.212;2022-11-24T15:01:54;98267.41;;;12.49;84.27
19259;BME280;9763;48.780;9.212;2022-11-24T15:05:18;98250.13;;;12.46;84.68
19259;BME280;9763;48.780;9.212;2022-11-24T15:08:46;98275.53;;;12.68;84.66
19259;BME280;9763;48.780;9.212;2022-11-24T15:12:24;98269.13;;;12.72;84.58
19259;BME280;9763;48.780;9.212;2022-11-24T15:15:53;98276.75;;;12.75;83.86
19259;BME280;9763;48.780;9.212;2022-11-24T15:19:30;98285.34;;;12.77;83.63
19259;BME280;9763;48.780;9.212;2022-11-24T15:23:22;98276.97;;;12.72;83.67
19259;BME280;9763;48.780;9.212;2022-11-24T15:26:47;98279.97;;;12.68;83.45
19259;BME280;9763;48.780;9.212;2022-11-24T15:30:12;98278.97;;;12.69;83.06
19259;BME280;9763;48.780;9.212;2022-11-24T15:33:35;98281.03;;;12.65;83.43
19259;BME280;9763;48.780;9.212;2022-11-24T15:36:59;98291.22;;;12.57;83.05
19259;BME280;9763;48.780;9.212;2022-11-24T15:40:23;98296.41;;;12.46;82.61
19259;BME280;9763;48.780;9.212;2022-11-24T15:43:48;98297.00;;;12.38;83.32
19259;BME280;9763;48.780;9.212;2022-11-24T15:47:12;98300.41;;;12.27;83.17
19259;BME280;9763;48.780;9.212;2022-11-24T15:50:36;98305.25;;;12.21;82.77
19259;BME280;9763;48.780;9.212;2022-11-24T15:53:59;98300.91;;;12.09;82.28
19259;BME280;9763;48.780;9.212;2022-11-24T15:57:24;98305.25;;;11.97;81.85
19259;BME280;9763;48.780;9.212;2022-11-24T16:00:49;98316.38;;;11.88;82.06
19259;BME280;9763;48.780;9.212;2022-11-24T16:04:15;98307.44;;;11.79;82.49
19259;BME280;9763;48.780;9.212;2022-11-24T16:07:38;98308.91;;;11.71;81.61
19259;BME280;9763;48.780;9.212;2022-11-24T16:11:02;98294.41;;;11.54;81.51
19259;BME280;9763;48.780;9.212;2022-11-24T16:14:26;98306.63;;;11.53;81.75
19259;BME280;9763;48.780;9.212;2022-11-24T16:17:51;98314.28;;;11.44;80.99
19259;BME280;9763;48.780;9.212;2022-11-24T16:21:15;98319.31;;;11.34;80.83
19259;BME280;9763;48.780;9.212;2022-11-24T16:24:39;98322.66;;;11.24;81.24
19259;BME280;9763;48.780;9.212;2022-11-24T16:28:03;98318.91;;;11.15;80.58
19259;BME280;9763;48.780;9.212;2022-11-24T16:31:27;98320.38;;;11.06;80.94
19259;BME280;9763;48.780;9.212;2022-11-24T16:34:53;98321.00;;;10.97;80.81
19259;BME280;9763;48.780;9.212;2022-11-24T16:38:17;98314.72;;;10.87;80.20
19259;BME280;9763;48.780;9.212;2022-11-24T16:41:41;98312.72;;;10.78;80.58
19259;BME280;9763;48.780;9.212;2022-11-24T16:45:06;98318.28;;;10.73;80.10
19259;BME280;9763;48.780;9.212;2022-11-24T16:48:34;98318.69;;;10.67;80.61
19259;BME280;9763;48.780;9.212;2022-11-24T16:51:59;98325.16;;;10.62;80.59
19259;BME280;9763;48.780;9.212;2022-11-24T16:55:23;98321.16;;;10.56;80.88
19259;BME280;9763;48.780;9.212;2022-11-24T16:58:46;98329.09;;;10.55;80.21
19259;BME280;9763;48.780;9.212;2022-11-24T17:02:12;98323.38;;;10.50;80.22
19259;BME280;9763;48.780;9.212;2022-11-24T17:05:35;98317.50;;;10.46;80.37
19259;BME280;9763;48.780;9.212;2022-11-24T17:09:00;98319.66;;;10.39;80.43
19259;BME280;9763;48.780;9.212;2022-11-24T17:12:24;98317.06;;;10.39;80.64
19259;BME280;9763;48.780;9.212;2022-11-24T17:15:48;98318.13;;;10.37;80.21
19259;BME280;9763;48.780;9.212;2022-11-24T17:19:15;98314.88;;;10.33;80.18
19259;BME280;9763;48.780;9.212;2022-11-24T17:22:39;98329.88;;;10.30;79.64
19259;BME280;9763;48.780;9.212;2022-11-24T17:26:07;98331.84;;;10.26;80.04
19259;BME280;9763;48.780;9.212;2022-11-24T17:29:31;98329.44;;;10.23;80.27
19259;BME280;9763;48.780;9.212;2022-11-24T17:32:55;98332.34;;;10.19;79.91
19259;BME280;9763;48.780;9.212;2022-11-24T17:36:20;98330.94;;;10.13;79.56
19259;BME280;9763;48.780;9.212;2022-11-24T17:39:44;98329.75;;;10.04;79.53
19259;BME280;9763;48.780;9.212;2022-11-24T17:43:29;98339.75;;;9.98;79.75
19259;BME280;9763;48.780;9.212;2022-11-24T17:46:53;98329.78;;;9.90;80.02
19259;BME280;9763;48.780;9.212;2022-11-24T17:50:17;98340.53;;;9.86;79.73
19259;BME280;9763;48.780;9.212;2022-11-24T17:53:49;98321.81;;;9.79;79.82
19259;BME280;9763;48.780;9.212;2022-11-24T17:57:14;98336.00;;;9.75;79.71
19259;BME280;9763;48.780;9.212;2022-11-24T18:00:39;98338.03;;;9.70;80.12
19259;BME280;9763;48.780;9.212;2022-11-24T18:04:03;98341.66;;;9.67;79.70
19259;BME280;9763;48.780;9.212;2022-11-24T18:07:27;98342.72;;;9.65;80.19
19259;BME280;9763;48.780;9.212;2022-11-24T18:10:51;98341.22;;;9.61;80.21
19259;BME280;9763;48.780;9.212;2022-11-24T18:14:15;98346.53;;;9.59;79.96
19259;BME280;9763;48.780;9.212;2022-11-24T18:17:40;98345.78;;;9.57;79.88
19259;BME280;9763;48.780;9.212;2022-11-24T18:21:04;98338.13;;;9.54;80.53
19259;BME280;9763;48.780;9.212;2022-11-24T18:24:28;98341.88;;;9.50;80.49
19259;BME280;9763;48.780;9.212;2022-11-24T18:27:52;98352.50;;;9.47;80.53
19259;BME280;9763;48.780;9.212;2022-11-24T18:31:16;98341.31;;;9.45;80.25
19259;BME280;9763;48.780;9.212;2022-11-24T18:34:43;98321.41;;;9.30;80.45
19259;BME280;9763;48.780;9.212;2022-11-24T18:38:07;98336.50;;;9.39;79.91
19259;BME280;9763;48.780;9.212;2022-11-24T18:41:31;98341.88;;;9.36;79.85